Aviation Digital Data Service (ADDS)

Output produced by TAFs form (1132 UTC 19 January 2018)
found at http://www.aviationweather.gov/adds/tafs/
 
RJOH 191100Z VRB02KT 9999 FEW040 BKN050 06/03 Q1019
TAF RJOH 191108Z 1912/2018 18005KT 9999 FEW030 BKN050